createdAt,value
2024-02-19T00:02:22.165Z,21.17
2024-02-19T00:05:25.290Z,18.57
2024-02-19T00:08:27.240Z,17.60
2024-02-19T00:11:31.069Z,22.23
2024-02-19T00:14:32.888Z,20.42
2024-02-19T00:17:34.831Z,17.17
2024-02-19T00:20:36.684Z,16.47
2024-02-19T00:23:38.465Z,18.73
2024-02-19T00:26:40.281Z,19.92
2024-02-19T00:29:42.277Z,19.15
2024-02-19T00:32:44.147Z,17.27
2024-02-19T00:35:47.018Z,20.63
2024-02-19T00:38:48.780Z,15.93
2024-02-19T00:41:50.871Z,16.55
2024-02-19T00:44:52.891Z,17.70
2024-02-19T00:47:54.669Z,17.87
2024-02-19T00:50:56.462Z,19.87
2024-02-19T00:53:58.277Z,18.40
2024-02-19T00:57:00.055Z,19.00
2024-02-19T01:00:01.834Z,16.58
2024-02-19T01:03:04.136Z,17.83
2024-02-19T01:06:06.619Z,19.03
2024-02-19T01:09:08.690Z,17.55
2024-02-19T01:12:10.547Z,18.05
2024-02-19T01:15:12.365Z,17.67
2024-02-19T01:18:14.157Z,20.80
2024-02-19T01:21:16.055Z,19.00
2024-02-19T01:24:17.782Z,18.27
2024-02-19T01:27:19.956Z,20.52
2024-02-19T01:30:21.893Z,19.55
2024-02-19T01:33:23.732Z,20.13
2024-02-19T01:36:25.546Z,21.73
2024-02-19T01:39:27.301Z,19.52
2024-02-19T01:42:29.034Z,23.05
2024-02-19T01:45:30.851Z,18.30
2024-02-19T01:48:33.261Z,19.53
2024-02-19T01:51:36.677Z,16.77
2024-02-19T01:54:39.890Z,18.08
2024-02-19T01:57:43.774Z,18.23
2024-02-19T02:00:46.180Z,18.73
2024-02-19T02:03:49.148Z,23.83
2024-02-19T02:06:51.145Z,22.40
2024-02-19T02:09:53.626Z,20.42
2024-02-19T02:12:55.418Z,20.45
2024-02-19T02:16:00.201Z,20.05
2024-02-19T02:19:02.049Z,21.17
2024-02-19T02:22:03.904Z,21.03
2024-02-19T02:25:06.177Z,21.77
2024-02-19T02:28:08.121Z,21.75
2024-02-19T02:31:10.509Z,19.67
2024-02-19T02:34:12.398Z,25.80
2024-02-19T02:37:17.086Z,25.87
2024-02-19T02:40:19.102Z,23.00
2024-02-19T02:43:21.017Z,21.42
2024-02-19T02:46:22.964Z,22.83
2024-02-19T02:49:24.959Z,19.73
2024-02-19T02:52:27.662Z,25.83
2024-02-19T02:55:29.593Z,22.67
2024-02-19T02:58:31.377Z,21.70
2024-02-19T03:01:33.625Z,20.77
2024-02-19T03:04:35.664Z,23.83
2024-02-19T03:07:37.701Z,24.30
2024-02-19T03:10:39.560Z,22.08
2024-02-19T03:13:41.346Z,22.38
2024-02-19T03:16:43.520Z,22.45
2024-02-19T03:19:45.407Z,24.83
2024-02-19T03:22:47.171Z,23.77
2024-02-19T03:25:48.866Z,30.08
2024-02-19T03:28:50.732Z,26.38
2024-02-19T03:31:52.455Z,22.08
2024-02-19T03:34:54.221Z,22.03
2024-02-19T03:37:56.145Z,23.93
2024-02-19T03:40:57.890Z,28.00
2024-02-19T03:44:00.337Z,28.10
2024-02-19T03:47:02.633Z,23.98
2024-02-19T03:50:05.044Z,25.33
2024-02-19T03:53:06.989Z,27.07
2024-02-19T03:56:08.778Z,25.52
2024-02-19T03:59:11.589Z,25.80
2024-02-19T04:02:13.485Z,23.88
2024-02-19T04:05:15.225Z,29.73
2024-02-19T04:08:17.619Z,25.10
2024-02-19T04:11:19.397Z,24.33
2024-02-19T04:14:21.209Z,23.92
2024-02-19T04:17:22.936Z,26.45
2024-02-19T04:20:24.730Z,26.63
2024-02-19T04:23:26.504Z,25.50
2024-02-19T04:26:28.273Z,25.33
2024-02-19T04:29:30.014Z,26.58
2024-02-19T04:32:31.824Z,29.05
2024-02-19T04:35:33.613Z,28.07
2024-02-19T04:38:35.346Z,24.05
2024-02-19T04:41:37.115Z,28.85
2024-02-19T04:44:40.512Z,31.58
2024-02-19T04:47:42.281Z,38.47
2024-02-19T04:50:44.250Z,44.27
2024-02-19T04:53:46.043Z,41.05
2024-02-19T04:56:48.062Z,43.83
2024-02-19T04:59:49.845Z,39.47
2024-02-19T05:02:51.599Z,46.43
2024-02-19T05:05:53.396Z,31.60
2024-02-19T05:08:56.009Z,34.83
2024-02-19T05:11:57.757Z,27.77
2024-02-19T05:14:59.496Z,29.33
2024-02-19T05:18:01.344Z,29.27
2024-02-19T05:21:04.407Z,26.60
2024-02-19T05:24:06.720Z,24.02
2024-02-19T05:27:08.505Z,28.00
2024-02-19T05:30:11.247Z,24.17
2024-02-19T05:33:14.006Z,25.70
2024-02-19T05:36:15.783Z,25.15
2024-02-19T05:39:17.546Z,25.35
2024-02-19T05:42:19.330Z,32.00
2024-02-19T05:45:21.239Z,27.93
2024-02-19T05:48:23.204Z,26.27
2024-02-19T05:51:25.150Z,23.08
2024-02-19T05:54:27.501Z,30.10
2024-02-19T05:57:29.230Z,33.42
2024-02-19T06:00:31.164Z,26.33
2024-02-19T06:03:35.083Z,25.07
2024-02-19T06:06:37.330Z,25.38
2024-02-19T06:09:42.127Z,25.55
2024-02-19T06:12:43.984Z,28.13
2024-02-19T06:15:45.900Z,26.03
2024-02-19T06:18:47.912Z,27.93
2024-02-19T06:21:49.800Z,44.58
2024-02-19T06:24:51.622Z,42.13
2024-02-19T06:27:53.439Z,30.13
2024-02-19T06:30:55.319Z,29.57
2024-02-19T06:33:57.290Z,30.10
2024-02-19T06:36:59.263Z,28.90
2024-02-19T06:40:03.709Z,27.30
2024-02-19T06:43:05.600Z,24.25
2024-02-19T06:46:07.485Z,27.60
2024-02-19T06:49:09.690Z,28.80
2024-02-19T06:52:11.527Z,34.00
2024-02-19T06:55:15.606Z,26.00
2024-02-19T06:58:17.514Z,27.42
2024-02-19T07:01:19.434Z,27.87
2024-02-19T07:04:21.655Z,24.53
2024-02-19T07:07:24.759Z,25.67
2024-02-19T07:10:29.744Z,29.10
2024-02-19T07:13:31.869Z,23.70
2024-02-19T07:16:33.821Z,27.27
2024-02-19T07:19:36.215Z,26.67
2024-02-19T07:22:38.229Z,29.38
2024-02-19T07:25:40.159Z,27.95
2024-02-19T07:28:41.997Z,26.83
2024-02-19T07:31:43.803Z,31.03
2024-02-19T07:34:47.667Z,27.83
2024-02-19T07:37:49.507Z,25.13
2024-02-19T07:40:51.336Z,28.50
2024-02-19T07:43:53.135Z,28.05
2024-02-19T07:46:55.026Z,22.57
2024-02-19T07:49:56.868Z,21.27
2024-02-19T07:52:58.865Z,25.58
2024-02-19T07:56:06.670Z,21.25
2024-02-19T07:59:09.344Z,22.40
2024-02-19T08:02:13.407Z,20.87
2024-02-19T08:05:15.613Z,21.50
2024-02-19T08:08:19.052Z,24.33
2024-02-19T08:11:24.865Z,22.02
2024-02-19T08:14:26.965Z,21.40
2024-02-19T08:17:28.774Z,24.80
2024-02-19T08:20:31.445Z,22.87
2024-02-19T08:23:33.295Z,20.35
2024-02-19T08:26:41.276Z,23.70
2024-02-19T08:29:45.305Z,23.35
2024-02-19T08:32:47.582Z,22.13
2024-02-19T08:35:51.517Z,22.90
2024-02-19T08:38:56.905Z,24.73
2024-02-19T08:41:58.939Z,19.40
2024-02-19T08:45:02.713Z,19.17
2024-02-19T08:48:05.476Z,21.70
2024-02-19T08:51:08.146Z,22.57
2024-02-19T08:54:09.969Z,34.65
2024-02-19T08:57:11.743Z,22.70
2024-02-19T09:00:13.982Z,23.15
2024-02-19T09:03:15.810Z,21.90
2024-02-19T09:06:18.151Z,19.10
2024-02-19T09:09:20.005Z,19.40
2024-02-19T09:12:22.965Z,23.15
2024-02-19T09:15:39.050Z,19.75
2024-02-19T09:18:48.620Z,19.80
2024-02-19T09:21:50.640Z,22.30
2024-02-19T09:24:53.059Z,20.30
2024-02-19T09:27:55.034Z,21.35
2024-02-19T09:30:59.594Z,20.70
2024-02-19T09:34:01.880Z,22.77
2024-02-19T09:38:39.943Z,20.60
2024-02-19T09:41:43.196Z,21.38
2024-02-19T09:44:57.029Z,18.58
2024-02-19T09:48:02.947Z,20.73
2024-02-19T09:51:06.947Z,19.80
2024-02-19T09:54:10.490Z,20.57
2024-02-19T09:57:12.555Z,19.23
2024-02-19T10:00:15.642Z,18.08
2024-02-19T10:03:20.117Z,17.52
2024-02-19T10:06:22.594Z,18.07
2024-02-19T10:09:24.457Z,16.47
2024-02-19T10:12:26.310Z,18.63
2024-02-19T10:15:28.087Z,15.55
2024-02-19T10:18:29.886Z,16.13
2024-02-19T10:21:38.508Z,14.73
2024-02-19T10:24:42.797Z,14.87
2024-02-19T10:28:03.007Z,12.77
2024-02-19T10:31:05.807Z,15.00
2024-02-19T10:34:10.316Z,16.88
2024-02-19T10:37:18.987Z,14.37
2024-02-19T10:40:21.656Z,9.97
2024-02-19T10:43:23.597Z,11.40
2024-02-19T10:46:25.894Z,10.63
2024-02-19T10:49:27.957Z,8.98
2024-02-19T10:52:32.612Z,8.10
2024-02-19T10:55:45.918Z,9.40
2024-02-19T10:59:00.762Z,10.65
2024-02-19T11:02:12.724Z,10.27
2024-02-19T11:05:14.747Z,11.25
2024-02-19T11:08:24.437Z,9.73
2024-02-19T11:11:26.485Z,9.27
2024-02-19T11:14:38.449Z,10.98
2024-02-19T11:17:40.356Z,9.55
2024-02-19T11:20:42.775Z,9.32
2024-02-19T11:23:44.581Z,9.83
2024-02-19T11:26:46.428Z,9.93
2024-02-19T11:29:48.777Z,10.05
2024-02-19T11:33:03.045Z,12.20
2024-02-19T11:36:05.211Z,9.13
2024-02-19T11:39:08.943Z,10.50
2024-02-19T11:42:15.978Z,9.90
2024-02-19T11:45:18.544Z,9.43
2024-02-19T11:48:21.064Z,11.98
2024-02-19T11:51:23.092Z,9.98
2024-02-19T11:54:25.026Z,10.73
2024-02-19T11:57:28.384Z,12.53
2024-02-19T12:00:31.572Z,13.73
2024-02-19T12:03:36.145Z,11.45
2024-02-19T12:06:38.853Z,11.93
2024-02-19T12:09:41.264Z,24.57
2024-02-19T12:12:43.985Z,16.60
2024-02-19T12:15:52.897Z,12.85
2024-02-19T12:18:59.697Z,9.88
2024-02-19T12:22:02.683Z,8.85
2024-02-19T12:25:05.928Z,8.73
2024-02-19T12:28:07.734Z,9.63
2024-02-19T12:31:12.249Z,8.13
2024-02-19T12:34:21.945Z,8.13
2024-02-19T12:37:31.166Z,9.70
2024-02-19T12:40:35.009Z,12.20
2024-02-19T12:43:37.225Z,10.63
2024-02-19T12:46:39.135Z,12.20
2024-02-19T12:49:41.153Z,12.43
2024-02-19T12:52:43.723Z,9.45
2024-02-19T12:55:45.634Z,10.90
2024-02-19T12:58:47.495Z,9.30
2024-02-19T13:01:50.620Z,9.75
2024-02-19T13:04:53.458Z,10.68
2024-02-19T13:07:55.481Z,9.50
2024-02-19T13:10:57.976Z,10.77
2024-02-19T13:14:00.118Z,9.93
2024-02-19T13:17:15.325Z,10.23
2024-02-19T13:20:18.676Z,9.07
2024-02-19T13:23:20.667Z,10.13
2024-02-19T13:26:22.436Z,9.80
2024-02-19T13:29:24.297Z,8.70
2024-02-19T13:32:26.134Z,8.18
2024-02-19T13:35:28.082Z,9.20
2024-02-19T13:38:31.020Z,15.82
2024-02-19T13:41:33.091Z,10.47
2024-02-19T13:44:34.943Z,12.53
2024-02-19T13:47:38.863Z,11.52
2024-02-19T13:50:40.781Z,9.48
2024-02-19T13:53:42.758Z,9.73
2024-02-19T13:56:44.604Z,9.37
2024-02-19T13:59:46.937Z,16.83
2024-02-19T14:02:48.935Z,16.70
2024-02-19T14:05:51.009Z,9.85
2024-02-19T14:08:52.930Z,9.18
2024-02-19T14:11:54.809Z,6.80
2024-02-19T14:15:06.716Z,7.40
2024-02-19T14:18:13.464Z,7.53
2024-02-19T14:21:15.488Z,7.78
2024-02-19T14:24:20.852Z,9.02
2024-02-19T14:28:34.584Z,27.07
2024-02-19T14:31:37.261Z,22.07
2024-02-19T14:34:40.837Z,9.45
2024-02-19T14:37:45.393Z,12.57
2024-02-19T14:41:07.279Z,8.63
2024-02-19T14:44:26.337Z,13.20
2024-02-19T14:47:28.265Z,24.93
2024-02-19T14:50:30.445Z,15.57
2024-02-19T14:53:32.336Z,15.20
2024-02-19T14:56:34.175Z,15.68
2024-02-19T14:59:38.615Z,10.57
2024-02-19T15:02:42.283Z,8.13
2024-02-19T15:05:44.991Z,8.30
2024-02-19T15:08:46.940Z,8.73
2024-02-19T15:11:50.952Z,12.00
2024-02-19T15:14:53.349Z,14.17
2024-02-19T15:17:55.245Z,12.27
2024-02-19T15:20:57.909Z,23.13
2024-02-19T15:24:03.353Z,37.42
2024-02-19T15:27:05.514Z,59.53
2024-02-19T15:30:07.853Z,35.10
2024-02-19T15:33:09.809Z,15.40
2024-02-19T15:36:11.830Z,13.98
2024-02-19T15:39:15.198Z,14.05
2024-02-19T15:42:17.060Z,10.90
2024-02-19T15:45:19.040Z,29.80
2024-02-19T15:48:20.875Z,67.13
2024-02-19T15:51:25.254Z,64.13
2024-02-19T15:54:27.065Z,103.60
2024-02-19T15:57:29.252Z,71.10
2024-02-19T16:00:33.439Z,40.57
2024-02-19T16:03:37.089Z,24.33
2024-02-19T16:06:39.108Z,24.70
2024-02-19T16:09:41.020Z,19.08
2024-02-19T16:12:42.801Z,22.27
2024-02-19T16:15:44.832Z,23.10
2024-02-19T16:18:47.039Z,22.43
2024-02-19T16:21:50.358Z,21.85
2024-02-19T16:24:52.156Z,13.23
2024-02-19T16:27:54.533Z,17.23
2024-02-19T16:30:56.821Z,19.80
2024-02-19T16:33:59.284Z,20.70
2024-02-19T16:37:01.203Z,43.58
2024-02-19T16:40:03.719Z,52.90
2024-02-19T16:43:06.729Z,47.50
2024-02-19T16:46:08.736Z,50.63
2024-02-19T16:49:10.786Z,31.70
2024-02-19T16:52:13.640Z,24.10
2024-02-19T16:55:15.841Z,39.25
2024-02-19T16:58:18.465Z,52.95
2024-02-19T17:01:20.560Z,37.87
2024-02-19T17:04:22.698Z,27.40
2024-02-19T17:07:24.754Z,27.25
2024-02-19T17:10:26.633Z,18.35
2024-02-19T17:13:28.617Z,17.55
2024-02-19T17:16:31.193Z,20.37
2024-02-19T17:19:33.341Z,15.63
2024-02-19T17:22:35.339Z,15.75
2024-02-19T17:25:37.204Z,18.33
2024-02-19T17:28:39.228Z,32.08
2024-02-19T17:31:41.228Z,44.20
2024-02-19T17:34:44.210Z,33.53
2024-02-19T17:37:46.183Z,29.90
2024-02-19T17:40:48.357Z,35.72
2024-02-19T17:43:50.501Z,47.95
2024-02-19T17:46:53.503Z,42.33
2024-02-19T17:49:55.359Z,44.73
2024-02-19T17:52:57.162Z,37.13
2024-02-19T17:55:58.950Z,29.38
2024-02-19T17:59:01.041Z,27.70
2024-02-19T18:02:04.964Z,22.77
2024-02-19T18:05:07.193Z,32.33
2024-02-19T18:08:08.966Z,32.30
2024-02-19T18:11:13.794Z,39.88
2024-02-19T18:14:16.217Z,41.10
2024-02-19T18:17:18.368Z,31.37
2024-02-19T18:20:21.041Z,27.37
2024-02-19T18:23:27.690Z,34.38
2024-02-19T18:26:29.622Z,25.83
2024-02-19T18:29:33.942Z,27.33
2024-02-19T18:32:41.237Z,21.70
2024-02-19T18:35:45.619Z,21.37
2024-02-19T18:38:48.735Z,26.35
2024-02-19T18:41:52.283Z,22.38
2024-02-19T18:44:54.089Z,21.80
2024-02-19T18:47:56.351Z,20.37
2024-02-19T18:50:59.375Z,22.67
2024-02-19T18:54:01.628Z,21.88
2024-02-19T18:57:07.956Z,22.30
2024-02-19T19:00:10.358Z,27.42
2024-02-19T19:03:12.259Z,31.40
2024-02-19T19:06:14.557Z,23.87
2024-02-19T19:09:16.481Z,20.40
2024-02-19T19:12:19.098Z,19.35
2024-02-19T19:15:21.541Z,21.88
2024-02-19T19:18:23.485Z,18.17
2024-02-19T19:21:25.420Z,17.03
2024-02-19T19:24:27.254Z,19.48
2024-02-19T19:27:30.199Z,21.02
2024-02-19T19:30:32.042Z,15.07
2024-02-19T19:33:34.342Z,14.83
2024-02-19T19:36:38.949Z,16.77
2024-02-19T19:39:40.726Z,19.17
2024-02-19T19:42:47.330Z,16.75
2024-02-19T19:45:49.367Z,16.85
2024-02-19T19:48:51.325Z,18.27
2024-02-19T19:51:53.272Z,17.73
2024-02-19T19:54:56.981Z,16.35
2024-02-19T19:57:59.891Z,15.15
2024-02-19T20:01:02.236Z,16.60
2024-02-19T20:04:05.344Z,21.20
2024-02-19T20:07:08.071Z,19.00
2024-02-19T20:10:14.966Z,16.25
2024-02-19T20:13:16.985Z,20.13
2024-02-19T20:16:19.599Z,17.73
2024-02-19T20:19:21.512Z,20.17
2024-02-19T20:22:23.483Z,16.77
2024-02-19T20:25:25.562Z,16.98
2024-02-19T20:28:27.542Z,16.00
2024-02-19T20:31:29.404Z,21.17
2024-02-19T20:34:34.171Z,18.07
2024-02-19T20:37:36.182Z,16.97
2024-02-19T20:40:38.017Z,25.25
2024-02-19T20:43:40.074Z,21.90
2024-02-19T20:46:41.987Z,24.33
2024-02-19T20:49:45.770Z,25.93
2024-02-19T20:52:47.631Z,20.80
2024-02-19T20:55:49.573Z,22.27
2024-02-19T20:58:51.479Z,19.55
2024-02-19T21:01:53.455Z,22.38
2024-02-19T21:04:55.329Z,22.53
2024-02-19T21:07:57.187Z,21.50
2024-02-19T21:11:03.016Z,21.35
2024-02-19T21:14:06.228Z,19.13
2024-02-19T21:17:08.020Z,19.00
2024-02-19T21:20:11.978Z,24.00
2024-02-19T21:23:14.232Z,20.00
2024-02-19T21:26:16.802Z,24.15
2024-02-19T21:29:19.514Z,27.90
2024-02-19T21:32:21.561Z,22.63
2024-02-19T21:35:23.735Z,21.70
2024-02-19T21:38:25.557Z,21.73
2024-02-19T21:41:27.368Z,24.90
2024-02-19T21:44:29.208Z,23.98
2024-02-19T21:47:31.093Z,28.30
2024-02-19T21:50:33.360Z,25.40
2024-02-19T21:53:35.173Z,21.10
2024-02-19T21:56:36.935Z,18.70
2024-02-19T21:59:38.862Z,20.25
2024-02-19T22:02:40.848Z,21.17
2024-02-19T22:05:42.608Z,23.93
2024-02-19T22:08:44.488Z,22.13
2024-02-19T22:11:46.569Z,17.92
2024-02-19T22:14:48.397Z,18.13
2024-02-19T22:17:50.259Z,18.55
2024-02-19T22:20:52.776Z,19.03
2024-02-19T22:23:54.648Z,19.90
2024-02-19T22:26:56.517Z,20.20
2024-02-19T22:29:58.267Z,22.55
2024-02-19T22:33:00.032Z,22.15
2024-02-19T22:36:01.836Z,22.77
2024-02-19T22:39:06.543Z,18.53
2024-02-19T22:42:14.830Z,21.88
2024-02-19T22:45:16.613Z,20.33
2024-02-19T22:48:18.436Z,23.17
2024-02-19T22:51:20.244Z,22.37
2024-02-19T22:54:22.063Z,23.00
2024-02-19T22:57:23.991Z,23.85
2024-02-19T23:00:40.241Z,22.05
2024-02-19T23:03:42.196Z,25.65
2024-02-19T23:06:44.081Z,36.77
2024-02-19T23:09:45.907Z,27.43
2024-02-19T23:12:47.789Z,24.67
2024-02-19T23:15:49.793Z,27.67
2024-02-19T23:18:51.765Z,28.48
2024-02-19T23:21:53.632Z,26.20
2024-02-19T23:24:55.554Z,24.80
2024-02-19T23:27:59.276Z,25.33
2024-02-19T23:31:01.143Z,27.83
2024-02-19T23:34:03.720Z,27.15
2024-02-19T23:37:06.977Z,27.77
2024-02-19T23:40:18.753Z,26.90
2024-02-19T23:43:20.703Z,30.45
2024-02-19T23:46:22.545Z,27.10
2024-02-19T23:49:24.761Z,29.67
2024-02-19T23:52:26.694Z,29.07
2024-02-19T23:55:28.811Z,25.73
2024-02-19T23:58:30.734Z,27.38
